createdAt,value
2019-05-20T00:02:04.046Z,16.23
2019-05-20T00:04:35.773Z,15.38
2019-05-20T00:07:07.551Z,15.30
2019-05-20T00:09:38.897Z,16.50
2019-05-20T00:12:10.696Z,16.17
2019-05-20T00:14:42.264Z,17.17
2019-05-20T00:17:14.084Z,16.80
2019-05-20T00:19:45.869Z,17.75
2019-05-20T00:22:17.285Z,15.88
2019-05-20T00:24:48.591Z,16.67
2019-05-20T00:27:20.474Z,16.45
2019-05-20T00:29:51.975Z,17.98
2019-05-20T00:32:40.013Z,17.23
2019-05-20T00:34:57.837Z,17.15
2019-05-20T00:37:29.254Z,18.75
2019-05-20T00:40:01.117Z,16.80
2019-05-20T00:42:32.801Z,17.48
2019-05-20T00:48:32.648Z,17.45
2019-05-20T00:54:16.654Z,17.65
2019-05-20T00:56:50.535Z,17.12
2019-05-20T00:59:21.945Z,17.98
2019-05-20T01:01:54.670Z,17.35
2019-05-20T01:04:26.043Z,17.50
2019-05-20T01:06:57.397Z,16.77
2019-05-20T01:09:28.778Z,16.17
2019-05-20T01:12:00.199Z,17.23
2019-05-20T01:14:32.089Z,17.50
2019-05-20T01:17:03.467Z,17.50
2019-05-20T01:19:35.485Z,17.17
2019-05-20T01:22:07.012Z,17.45
2019-05-20T01:24:38.573Z,17.82
2019-05-20T01:27:10.094Z,18.40
2019-05-20T01:29:41.797Z,18.25
2019-05-20T01:32:13.698Z,16.67
2019-05-20T01:34:45.097Z,17.85
2019-05-20T01:37:16.498Z,18.65
2019-05-20T01:39:48.161Z,17.37
2019-05-20T01:42:19.594Z,18.32
2019-05-20T01:44:51.082Z,18.77
2019-05-20T01:47:22.707Z,18.07
2019-05-20T01:49:54.394Z,17.48
2019-05-20T01:52:25.713Z,17.98
2019-05-20T01:54:57.121Z,17.75
2019-05-20T01:57:28.800Z,18.65
2019-05-20T02:00:00.305Z,18.73
2019-05-20T02:02:32.169Z,17.87
2019-05-20T02:05:04.189Z,17.77
2019-05-20T02:07:35.787Z,18.12
2019-05-20T02:10:07.969Z,17.85
2019-05-20T02:12:39.681Z,18.17
2019-05-20T02:15:21.443Z,18.17
2019-05-20T02:17:52.935Z,17.73
2019-05-20T02:20:24.305Z,17.37
2019-05-20T02:23:13.778Z,19.20
2019-05-20T02:25:47.693Z,18.55
2019-05-20T02:28:19.012Z,19.07
2019-05-20T02:30:50.421Z,18.37
2019-05-20T02:33:22.015Z,19.42
2019-05-20T02:35:53.604Z,19.77
2019-05-20T02:38:25.105Z,18.50
2019-05-20T02:40:56.441Z,18.70
2019-05-20T02:43:28.087Z,18.50
2019-05-20T02:45:59.855Z,18.67
2019-05-20T02:48:32.086Z,18.85
2019-05-20T02:51:03.629Z,19.02
2019-05-20T03:03:22.919Z,18.37
2019-05-20T03:05:54.304Z,19.15
2019-05-20T03:08:25.948Z,19.60
2019-05-20T03:10:57.208Z,19.65
2019-05-20T03:13:28.682Z,18.95
2019-05-20T03:16:00.245Z,21.00
2019-05-20T03:18:32.182Z,21.68
2019-05-20T03:21:03.621Z,22.42
2019-05-20T03:23:35.576Z,23.20
2019-05-20T03:26:06.894Z,22.95
2019-05-20T03:28:38.710Z,24.15
2019-05-20T03:31:10.169Z,23.55
2019-05-20T03:33:41.667Z,22.98
2019-05-20T03:36:13.149Z,23.25
2019-05-20T03:38:44.478Z,22.93
2019-05-20T03:41:15.928Z,22.13
2019-05-20T03:43:47.664Z,21.55
2019-05-20T03:46:19.257Z,22.37
2019-05-20T03:48:50.968Z,22.00
2019-05-20T03:51:22.327Z,22.25
2019-05-20T03:53:54.093Z,22.27
2019-05-20T03:56:25.493Z,21.65
2019-05-20T03:58:56.777Z,22.45
2019-05-20T04:01:28.059Z,22.77
2019-05-20T04:03:59.392Z,23.90
2019-05-20T04:09:45.799Z,22.35
2019-05-20T04:12:17.216Z,23.02
2019-05-20T04:14:48.636Z,21.23
2019-05-20T04:17:20.077Z,20.82
2019-05-20T04:19:51.481Z,20.17
2019-05-20T04:22:22.830Z,19.95
2019-05-20T04:24:54.125Z,20.45
2019-05-20T04:27:25.404Z,19.82
2019-05-20T04:29:58.373Z,19.45
2019-05-20T04:32:30.494Z,20.92
2019-05-20T04:35:20.407Z,22.17
2019-05-20T04:37:36.369Z,20.97
2019-05-20T04:40:08.042Z,19.23
2019-05-20T04:42:39.491Z,19.35
2019-05-20T04:45:11.564Z,18.62
2019-05-20T04:47:43.812Z,19.73
2019-05-20T04:50:16.941Z,19.65
2019-05-20T04:52:48.442Z,18.60
2019-05-20T04:55:20.064Z,19.60
2019-05-20T04:57:52.081Z,17.57
2019-05-20T05:00:54.576Z,18.55
2019-05-20T05:03:25.980Z,18.48
2019-05-20T05:05:57.729Z,17.32
2019-05-20T05:08:29.251Z,16.85
2019-05-20T05:11:00.814Z,16.30
2019-05-20T05:13:32.219Z,18.15
2019-05-20T05:16:03.894Z,17.17
2019-05-20T05:18:35.528Z,16.27
2019-05-20T05:21:07.123Z,16.97
2019-05-20T05:23:39.675Z,15.68
2019-05-20T05:26:11.054Z,15.75
2019-05-20T05:28:42.883Z,15.32
2019-05-20T05:31:14.512Z,16.02
2019-05-20T05:33:46.222Z,15.28
2019-05-20T05:36:17.468Z,14.20
2019-05-20T05:38:48.773Z,14.73
2019-05-20T05:41:20.083Z,13.18
2019-05-20T05:43:51.673Z,13.65
2019-05-20T05:46:23.150Z,12.23
2019-05-20T05:48:54.476Z,12.93
2019-05-20T05:51:26.009Z,11.88
2019-05-20T05:53:57.209Z,13.98
2019-05-20T05:56:28.473Z,12.23
2019-05-20T05:59:00.251Z,13.25
2019-05-20T06:01:32.586Z,11.90
2019-05-20T06:04:04.731Z,11.75
2019-05-20T06:06:36.410Z,12.65
2019-05-20T06:09:08.845Z,14.10
2019-05-20T06:11:40.359Z,12.85
2019-05-20T06:14:11.901Z,13.72
2019-05-20T06:16:43.658Z,14.25
2019-05-20T06:19:14.947Z,13.50
2019-05-20T06:21:46.326Z,12.73
2019-05-20T06:24:17.663Z,14.07
2019-05-20T06:26:49.017Z,14.05
2019-05-20T06:29:20.417Z,14.98
2019-05-20T06:31:52.303Z,15.25
2019-05-20T06:34:24.025Z,13.18
2019-05-20T06:36:57.738Z,16.00
2019-05-20T06:39:29.535Z,14.25
2019-05-20T06:42:00.846Z,14.15
2019-05-20T06:44:32.252Z,11.88
2019-05-20T06:47:03.655Z,12.82
2019-05-20T06:49:34.971Z,15.05
2019-05-20T06:52:07.290Z,15.63
2019-05-20T06:54:38.740Z,14.00
2019-05-20T06:57:10.445Z,14.45
2019-05-20T06:59:42.987Z,12.33
2019-05-20T07:02:16.407Z,12.30
2019-05-20T07:04:47.890Z,13.43
2019-05-20T07:07:21.289Z,13.05
2019-05-20T07:09:53.699Z,12.10
2019-05-20T07:12:40.046Z,13.48
2019-05-20T07:14:58.275Z,11.95
2019-05-20T07:17:29.643Z,12.80
2019-05-20T07:20:01.140Z,13.30
2019-05-20T07:22:33.195Z,12.75
2019-05-20T07:25:04.694Z,9.78
2019-05-20T07:27:36.891Z,11.90
2019-05-20T07:30:09.555Z,11.57
2019-05-20T07:32:41.068Z,11.73
2019-05-20T07:35:28.777Z,10.82
2019-05-20T07:37:46.510Z,8.60
2019-05-20T07:43:28.108Z,10.18
2019-05-20T07:46:00.290Z,11.55
2019-05-20T07:48:33.166Z,11.55
2019-05-20T07:51:05.933Z,9.23
2019-05-20T07:53:38.100Z,8.95
2019-05-20T08:08:06.377Z,10.43
2019-05-20T08:10:37.966Z,11.70
2019-05-20T08:13:09.581Z,10.88
2019-05-20T08:15:41.242Z,8.10
2019-05-20T08:18:12.617Z,7.78
2019-05-20T08:20:44.082Z,8.43
2019-05-20T08:23:15.330Z,8.38
2019-05-20T08:25:46.635Z,7.75
2019-05-20T08:28:18.231Z,8.40
2019-05-20T08:30:50.016Z,8.05
2019-05-20T08:33:21.692Z,7.87
2019-05-20T08:35:53.276Z,8.58
2019-05-20T08:38:24.623Z,8.05
2019-05-20T08:40:56.123Z,8.68
2019-05-20T08:43:27.698Z,8.15
2019-05-20T08:45:59.216Z,10.40
2019-05-20T08:48:31.115Z,10.72
2019-05-20T08:51:02.757Z,8.88
2019-05-20T08:53:34.532Z,8.80
2019-05-20T08:56:06.017Z,7.10
2019-05-20T08:58:37.502Z,6.30
2019-05-20T09:01:11.350Z,7.42
2019-05-20T09:12:49.574Z,5.62
2019-05-20T09:15:21.167Z,6.37
2019-05-20T09:17:52.493Z,7.65
2019-05-20T09:20:24.530Z,6.70
2019-05-20T09:22:56.041Z,6.97
2019-05-20T09:25:32.294Z,6.97
2019-05-20T09:28:03.713Z,7.17
2019-05-20T09:30:35.103Z,6.87
2019-05-20T09:33:07.437Z,7.87
2019-05-20T09:35:41.055Z,6.92
2019-05-20T09:38:20.294Z,7.75
2019-05-20T09:40:47.458Z,6.75
2019-05-20T09:43:19.017Z,8.30
2019-05-20T09:46:06.241Z,8.75
2019-05-20T09:48:25.615Z,7.50
2019-05-20T09:50:57.245Z,8.03
2019-05-20T09:53:28.948Z,7.80
2019-05-20T09:56:00.836Z,9.15
2019-05-20T09:58:32.582Z,8.25
2019-05-20T10:01:04.154Z,8.15
2019-05-20T10:09:10.081Z,7.53
2019-05-20T10:11:42.336Z,8.40
2019-05-20T10:14:14.908Z,7.95
2019-05-20T10:16:49.341Z,7.53
2019-05-20T10:19:20.895Z,7.47
2019-05-20T10:21:52.517Z,7.65
2019-05-20T10:24:24.128Z,7.87
2019-05-20T10:26:58.818Z,7.45
2019-05-20T10:29:30.373Z,8.13
2019-05-20T10:32:01.962Z,6.50
2019-05-20T10:34:37.183Z,6.65
2019-05-20T10:37:07.080Z,5.58
2019-05-20T10:39:38.680Z,6.50
2019-05-20T10:42:10.512Z,6.90
2019-05-20T10:44:42.141Z,6.37
2019-05-20T10:47:13.804Z,6.60
2019-05-20T10:55:39.256Z,6.50
2019-05-20T10:58:10.726Z,6.03
2019-05-20T11:01:01.074Z,6.45
2019-05-20T11:09:14.310Z,6.50
2019-05-20T11:11:45.943Z,5.42
2019-05-20T11:14:17.161Z,5.55
2019-05-20T11:16:48.556Z,5.80
2019-05-20T11:19:20.006Z,5.87
2019-05-20T11:21:51.406Z,6.90
2019-05-20T11:24:23.061Z,6.37
2019-05-20T11:26:54.335Z,6.90
2019-05-20T11:29:26.087Z,6.58
2019-05-20T11:31:57.507Z,6.42
2019-05-20T11:34:28.843Z,6.85
2019-05-20T11:37:00.688Z,6.70
2019-05-20T11:39:34.102Z,5.75
2019-05-20T11:42:05.755Z,5.92
2019-05-20T11:44:37.094Z,6.10
2019-05-20T11:47:08.605Z,6.17
2019-05-20T11:49:40.365Z,6.37
2019-05-20T11:52:11.956Z,7.35
2019-05-20T11:54:43.727Z,6.65
2019-05-20T11:57:15.029Z,7.70
2019-05-20T11:59:46.465Z,7.85
2019-05-20T12:08:28.319Z,8.90
2019-05-20T12:10:59.723Z,9.08
2019-05-20T13:36:03.660Z,10.10
2019-05-20T13:50:00.137Z,7.33
2019-05-20T14:13:02.834Z,7.80
2019-05-20T14:49:59.610Z,7.40
2019-05-20T14:59:59.103Z,7.00
2019-05-20T15:07:30.049Z,6.85
2019-05-20T15:11:01.158Z,7.22
2019-05-20T15:35:09.873Z,6.65
2019-05-20T15:38:51.511Z,6.53
2019-05-20T15:45:33.728Z,6.33
2019-05-20T15:48:57.687Z,6.50
2019-05-20T15:52:23.886Z,6.05
2019-05-20T15:55:59.633Z,6.00
2019-05-20T16:14:04.479Z,6.60
2019-05-20T16:17:25.621Z,6.42
2019-05-20T16:21:28.121Z,6.22
2019-05-20T16:25:03.797Z,5.85
2019-05-20T16:28:34.846Z,6.22
2019-05-20T16:41:56.996Z,6.40
2019-05-20T16:45:15.252Z,6.33
2019-05-20T16:48:43.451Z,6.65
2019-05-20T16:52:16.952Z,6.28
2019-05-20T16:55:45.607Z,5.62
2019-05-20T16:59:05.541Z,5.58
2019-05-20T17:02:26.089Z,4.90
2019-05-20T17:05:55.672Z,4.60
2019-05-20T17:09:15.349Z,4.55
2019-05-20T17:12:38.665Z,3.90
2019-05-20T17:15:58.204Z,3.90
2019-05-20T17:19:15.011Z,3.47
2019-05-20T17:22:03.228Z,4.05
2019-05-20T17:25:25.238Z,4.85
2019-05-20T17:28:45.234Z,5.33
2019-05-20T17:32:38.678Z,5.67
2019-05-20T17:36:01.055Z,5.40
2019-05-20T17:38:33.716Z,5.28
2019-05-20T17:41:05.611Z,6.20
2019-05-20T17:43:37.504Z,5.37
2019-05-20T17:46:08.947Z,5.72
2019-05-20T17:48:40.384Z,5.53
2019-05-20T17:51:12.443Z,5.50
2019-05-20T17:53:44.667Z,5.12
2019-05-20T17:56:16.290Z,5.05
2019-05-20T17:58:47.753Z,5.45
2019-05-20T18:01:19.245Z,5.65
2019-05-20T18:03:51.141Z,5.80
2019-05-20T18:06:22.724Z,6.03
2019-05-20T18:08:56.055Z,5.83
2019-05-20T18:11:27.333Z,5.42
2019-05-20T18:14:03.513Z,5.33
2019-05-20T18:16:35.096Z,5.67
2019-05-20T18:19:06.680Z,5.05
2019-05-20T18:21:38.269Z,5.33
2019-05-20T18:24:09.625Z,5.30
2019-05-20T18:26:40.999Z,6.25
2019-05-20T18:29:13.434Z,5.90
2019-05-20T18:31:46.829Z,7.12
2019-05-20T18:34:18.061Z,8.53
2019-05-20T18:36:49.406Z,8.33
2019-05-20T18:39:20.856Z,10.03
2019-05-20T18:41:52.451Z,10.20
2019-05-20T18:44:24.068Z,10.23
2019-05-20T18:46:55.462Z,10.82
2019-05-20T18:49:26.727Z,10.00
2019-05-20T18:51:58.055Z,10.50
2019-05-20T18:54:29.585Z,9.33
2019-05-20T18:57:01.931Z,9.95
2019-05-20T18:59:33.547Z,9.70
2019-05-20T19:02:05.905Z,9.10
2019-05-20T19:05:32.635Z,8.73
2019-05-20T19:09:04.925Z,9.45
2019-05-20T19:12:29.896Z,10.10
2019-05-20T19:15:59.258Z,10.30
2019-05-20T19:19:27.491Z,10.30
2019-05-20T19:23:16.993Z,10.90
2019-05-20T19:27:06.871Z,11.60
2019-05-20T19:30:55.518Z,10.10
2019-05-20T19:34:32.566Z,10.32
2019-05-20T19:41:36.853Z,9.70
2019-05-20T19:45:06.560Z,10.00
2019-05-20T19:48:29.176Z,7.58
2019-05-20T19:52:04.249Z,8.05
2019-05-20T20:03:35.900Z,7.78
2019-05-20T20:07:21.679Z,6.95
2019-05-20T20:14:30.686Z,6.90
2019-05-20T20:18:03.276Z,7.55
2019-05-20T20:21:23.949Z,7.75
2019-05-20T20:24:51.879Z,9.20
2019-05-20T20:28:18.858Z,11.55
2019-05-20T20:31:48.547Z,12.58
2019-05-20T20:38:26.500Z,11.93
2019-05-20T20:41:54.327Z,13.58
2019-05-20T20:45:23.639Z,12.73
2019-05-20T20:49:09.122Z,14.83
2019-05-20T20:52:32.754Z,14.58
2019-05-20T20:56:00.171Z,14.45
2019-05-20T20:59:32.216Z,13.60
2019-05-20T21:03:08.254Z,13.45
2019-05-20T21:06:29.021Z,11.97
2019-05-20T21:10:11.809Z,12.10
2019-05-20T21:14:06.406Z,12.05
2019-05-20T21:17:35.880Z,11.60
2019-05-20T21:21:13.376Z,11.12
2019-05-20T21:25:02.234Z,12.07
2019-05-20T21:28:53.014Z,11.22
2019-05-20T21:32:22.699Z,11.05
2019-05-20T21:35:53.865Z,10.53
2019-05-20T21:39:22.273Z,10.13
2019-05-20T21:42:38.590Z,9.38
2019-05-20T21:46:10.334Z,10.00
2019-05-20T21:49:46.453Z,9.13
2019-05-20T21:53:12.784Z,9.20
2019-05-20T21:56:34.546Z,8.53
2019-05-20T22:03:38.619Z,8.40
2019-05-20T22:07:06.253Z,8.78
2019-05-20T22:10:31.294Z,8.13
2019-05-20T22:13:55.131Z,9.10
2019-05-20T22:17:21.705Z,8.95
2019-05-20T22:20:44.814Z,8.15
2019-05-20T22:24:09.138Z,8.75
2019-05-20T22:27:33.161Z,9.23
2019-05-20T22:31:12.776Z,8.90
2019-05-20T22:34:51.340Z,8.28
2019-05-20T22:38:05.955Z,8.88
2019-05-20T22:41:27.970Z,9.53
2019-05-20T22:44:49.357Z,9.35
2019-05-20T22:48:20.746Z,8.85
2019-05-20T22:51:41.577Z,8.50
2019-05-20T22:55:24.010Z,8.40
2019-05-20T22:58:45.587Z,8.60
2019-05-20T23:02:02.135Z,8.30
2019-05-20T23:04:44.697Z,7.45
2019-05-20T23:07:16.171Z,7.87
2019-05-20T23:09:47.357Z,10.38
2019-05-20T23:12:18.758Z,7.22
2019-05-20T23:14:50.214Z,8.00
2019-05-20T23:17:21.593Z,7.80
2019-05-20T23:19:52.927Z,7.50
2019-05-20T23:22:24.189Z,7.92
2019-05-20T23:24:55.390Z,7.05
2019-05-20T23:27:26.884Z,7.53
2019-05-20T23:29:58.178Z,8.05
2019-05-20T23:32:29.819Z,7.87
2019-05-20T23:35:01.331Z,7.83
2019-05-20T23:37:33.084Z,7.80
2019-05-20T23:40:05.615Z,7.55
2019-05-20T23:42:38.055Z,8.08
2019-05-20T23:45:10.118Z,8.70
2019-05-20T23:47:41.656Z,8.00
2019-05-20T23:50:13.067Z,7.40
2019-05-20T23:52:44.810Z,8.25
2019-05-20T23:55:16.280Z,7.60
2019-05-20T23:57:47.725Z,7.92
